createdAt,value
2018-02-14T00:00:04.726Z,12.40
2018-02-14T00:01:04.701Z,12.80
2018-02-14T00:02:04.697Z,12.80
2018-02-14T00:03:04.725Z,12.80
2018-02-14T00:04:04.709Z,13.10
2018-02-14T00:05:25.695Z,13.10
2018-02-14T00:06:04.680Z,12.60
2018-02-14T00:07:04.672Z,13.30
2018-02-14T00:08:04.712Z,13.50
2018-02-14T00:09:04.684Z,12.50
2018-02-14T00:10:04.693Z,12.50
2018-02-14T00:11:25.676Z,14.00
2018-02-14T00:12:04.674Z,13.10
2018-02-14T00:13:04.648Z,12.70
2018-02-14T00:14:04.646Z,12.80
2018-02-14T00:15:04.651Z,12.70
2018-02-14T00:16:04.655Z,13.60
2018-02-14T00:17:25.656Z,12.50
2018-02-14T00:18:04.650Z,12.20
2018-02-14T00:19:04.660Z,13.60
2018-02-14T00:20:04.633Z,13.60
2018-02-14T00:21:04.677Z,13.00
2018-02-14T00:22:04.639Z,13.10
2018-02-14T00:23:25.658Z,13.50
2018-02-14T00:24:04.672Z,13.30
2018-02-14T00:25:04.611Z,13.30
2018-02-14T00:26:04.609Z,12.70
2018-02-14T00:27:04.613Z,13.00
2018-02-14T00:28:04.613Z,12.60
2018-02-14T00:29:25.618Z,13.00
2018-02-14T00:30:04.597Z,11.80
2018-02-14T00:31:04.607Z,13.10
2018-02-14T00:32:04.600Z,13.60
2018-02-14T00:33:04.595Z,13.20
2018-02-14T00:34:05.236Z,13.60
2018-02-14T00:35:25.629Z,13.50
2018-02-14T00:36:04.591Z,13.90
2018-02-14T00:37:04.583Z,12.90
2018-02-14T00:38:04.569Z,13.00
2018-02-14T00:39:04.582Z,12.80
2018-02-14T00:40:04.579Z,13.30
2018-02-14T00:41:25.608Z,13.30
2018-02-14T00:42:04.557Z,13.10
2018-02-14T00:43:04.541Z,12.40
2018-02-14T00:44:04.568Z,12.40
2018-02-14T00:45:04.609Z,13.00
2018-02-14T00:46:04.536Z,13.90
2018-02-14T00:47:25.565Z,14.20
2018-02-14T00:48:04.548Z,13.80
2018-02-14T00:49:04.537Z,13.00
2018-02-14T00:50:04.664Z,13.30
2018-02-14T00:51:04.556Z,13.20
2018-02-14T00:52:04.556Z,13.10
2018-02-14T00:53:25.521Z,13.00
2018-02-14T00:54:04.520Z,13.60
2018-02-14T00:55:04.560Z,13.70
2018-02-14T00:56:04.521Z,13.20
2018-02-14T00:57:04.509Z,12.60
2018-02-14T00:58:04.502Z,13.40
2018-02-14T00:59:25.551Z,13.10
2018-02-14T01:00:04.580Z,13.10
2018-02-14T01:01:04.482Z,12.90
2018-02-14T01:02:04.477Z,13.00
2018-02-14T01:03:04.518Z,13.40
2018-02-14T01:04:04.479Z,13.00
2018-02-14T01:05:25.504Z,12.70
2018-02-14T01:06:04.464Z,13.40
2018-02-14T01:07:04.474Z,13.70
2018-02-14T01:08:05.216Z,13.20
2018-02-14T01:09:04.514Z,12.80
2018-02-14T01:10:04.473Z,13.20
2018-02-14T01:11:25.480Z,13.20
2018-02-14T01:12:04.453Z,12.50
2018-02-14T01:13:04.434Z,12.90
2018-02-14T01:14:04.449Z,12.80
2018-02-14T01:15:04.459Z,13.30
2018-02-14T01:16:04.438Z,13.00
2018-02-14T01:17:25.434Z,12.90
2018-02-14T01:18:04.526Z,12.90
2018-02-14T01:19:04.415Z,13.10
2018-02-14T01:20:04.402Z,13.50
2018-02-14T01:21:04.412Z,12.50
2018-02-14T01:22:04.395Z,12.80
2018-02-14T01:23:25.408Z,12.40
2018-02-14T01:24:04.400Z,12.90
2018-02-14T01:25:04.408Z,13.20
2018-02-14T01:26:04.406Z,12.20
2018-02-14T01:27:04.410Z,13.20
2018-02-14T01:28:04.408Z,12.10
2018-02-14T01:29:25.378Z,12.20
2018-02-14T01:30:04.422Z,12.20
2018-02-14T01:31:04.371Z,13.70
2018-02-14T01:32:04.377Z,12.70
2018-02-14T01:33:04.354Z,12.80
2018-02-14T01:34:04.369Z,12.50
2018-02-14T01:35:25.367Z,12.60
2018-02-14T01:36:04.377Z,12.40
2018-02-14T01:37:04.415Z,12.60
2018-02-14T01:38:04.339Z,12.30
2018-02-14T01:39:04.335Z,12.00
2018-02-14T01:40:04.330Z,11.50
2018-02-14T01:41:25.343Z,11.90
2018-02-14T01:42:04.339Z,13.10
2018-02-14T01:43:04.329Z,12.60
2018-02-14T01:44:04.364Z,12.80
2018-02-14T01:45:04.327Z,13.20
2018-02-14T01:46:04.321Z,12.50
2018-02-14T01:47:25.345Z,13.00
2018-02-14T01:48:04.310Z,12.00
2018-02-14T01:49:04.294Z,12.80
2018-02-14T01:50:04.296Z,12.90
2018-02-14T01:51:04.297Z,12.70
2018-02-14T01:52:04.306Z,11.80
2018-02-14T01:53:25.289Z,13.00
2018-02-14T01:54:04.298Z,12.30
2018-02-14T01:55:05.247Z,12.00
2018-02-14T01:56:04.273Z,12.50
2018-02-14T01:57:04.266Z,12.20
2018-02-14T01:58:04.307Z,12.30
2018-02-14T01:59:25.325Z,12.60
2018-02-14T02:00:04.266Z,12.30
2018-02-14T02:01:04.354Z,13.30
2018-02-14T02:02:04.296Z,12.10
2018-02-14T02:03:04.246Z,12.40
2018-02-14T02:04:04.344Z,13.20
2018-02-14T02:05:25.256Z,12.70
2018-02-14T02:06:04.243Z,12.30
2018-02-14T02:07:04.234Z,12.50
2018-02-14T02:08:04.231Z,12.70
2018-02-14T02:09:04.217Z,12.60
2018-02-14T02:10:04.234Z,12.60
2018-02-14T02:11:25.236Z,12.80
2018-02-14T02:12:04.233Z,13.60
2018-02-14T02:13:04.198Z,12.50
2018-02-14T02:14:04.204Z,12.10
2018-02-14T02:15:04.234Z,12.10
2018-02-14T02:16:04.222Z,11.90
2018-02-14T02:17:25.230Z,12.10
2018-02-14T02:18:04.183Z,12.70
2018-02-14T02:19:04.204Z,12.20
2018-02-14T02:20:04.183Z,12.10
2018-02-14T02:21:04.203Z,11.70
2018-02-14T02:22:04.175Z,12.70
2018-02-14T02:23:25.201Z,12.30
2018-02-14T02:24:04.741Z,11.60
2018-02-14T02:25:04.178Z,11.60
2018-02-14T02:26:04.157Z,11.60
2018-02-14T02:27:04.198Z,12.80
2018-02-14T02:28:04.186Z,11.40
2018-02-14T02:29:25.144Z,11.80
2018-02-14T02:30:04.142Z,12.10
2018-02-14T02:31:04.127Z,12.40
2018-02-14T02:32:04.739Z,11.20
2018-02-14T02:33:04.126Z,11.60
2018-02-14T02:34:04.132Z,11.90
2018-02-14T02:35:25.132Z,12.00
2018-02-14T02:36:04.145Z,12.10
2018-02-14T02:37:04.121Z,12.30
2018-02-14T02:38:04.125Z,12.00
2018-02-14T02:39:04.142Z,12.60
2018-02-14T02:40:04.103Z,11.80
2018-02-14T02:41:25.100Z,11.10
2018-02-14T02:42:04.122Z,12.00
2018-02-14T02:43:04.120Z,11.70
2018-02-14T02:44:04.095Z,11.50
2018-02-14T02:45:04.169Z,11.50
2018-02-14T02:46:04.071Z,11.60
2018-02-14T02:47:25.072Z,11.50
2018-02-14T02:48:04.089Z,11.00
2018-02-14T02:49:04.061Z,11.60
2018-02-14T02:50:04.062Z,11.20
2018-02-14T02:51:04.075Z,12.20
2018-02-14T02:52:04.046Z,11.50
2018-02-14T02:53:25.077Z,11.10
2018-02-14T02:54:04.046Z,11.90
2018-02-14T02:55:04.044Z,11.80
2018-02-14T02:56:04.062Z,11.30
2018-02-14T02:57:04.026Z,11.80
2018-02-14T02:58:04.153Z,11.60
2018-02-14T02:59:25.083Z,11.40
2018-02-14T03:00:04.011Z,11.20
2018-02-14T03:01:04.100Z,12.00
2018-02-14T03:02:04.104Z,12.00
2018-02-14T03:03:03.992Z,11.60
2018-02-14T03:04:04.011Z,11.70
2018-02-14T03:05:25.058Z,11.10
2018-02-14T03:06:04.021Z,12.20
2018-02-14T03:07:04.001Z,11.50
2018-02-14T03:08:04.026Z,11.90
2018-02-14T03:09:03.975Z,12.00
2018-02-14T03:10:03.969Z,12.50
2018-02-14T03:11:24.988Z,11.80
2018-02-14T03:12:03.968Z,11.90
2018-02-14T03:13:03.956Z,12.70
2018-02-14T03:14:04.082Z,12.10
2018-02-14T03:15:03.959Z,11.70
2018-02-14T03:16:03.955Z,12.50
2018-02-14T03:17:24.971Z,12.10
2018-02-14T03:18:03.959Z,12.60
2018-02-14T03:19:03.999Z,12.00
2018-02-14T03:20:04.004Z,12.70
2018-02-14T03:21:03.922Z,12.90
2018-02-14T03:22:03.928Z,12.80
2018-02-14T03:23:25.746Z,12.90
2018-02-14T03:24:03.939Z,12.40
2018-02-14T03:25:03.914Z,12.40
2018-02-14T03:26:03.913Z,12.60
2018-02-14T03:27:03.927Z,12.20
2018-02-14T03:28:03.892Z,12.60
2018-02-14T03:29:24.969Z,12.20
2018-02-14T03:30:04.703Z,12.90
2018-02-14T03:31:03.886Z,13.50
2018-02-14T03:32:04.765Z,12.80
2018-02-14T03:33:03.871Z,13.50
2018-02-14T03:34:03.914Z,12.80
2018-02-14T03:35:24.878Z,13.50
2018-02-14T03:36:03.888Z,12.90
2018-02-14T03:37:03.865Z,12.80
2018-02-14T03:38:03.876Z,12.90
2018-02-14T03:39:04.008Z,13.80
2018-02-14T03:40:03.841Z,13.10
2018-02-14T03:41:24.838Z,13.20
2018-02-14T03:42:03.825Z,12.60
2018-02-14T03:43:03.841Z,12.30
2018-02-14T03:44:03.837Z,13.10
2018-02-14T03:45:03.824Z,13.10
2018-02-14T03:46:03.862Z,13.40
2018-02-14T03:47:24.855Z,13.10
2018-02-14T03:48:03.909Z,13.10
2018-02-14T03:49:03.806Z,13.60
2018-02-14T03:50:03.806Z,13.20
2018-02-14T03:51:03.805Z,13.00
2018-02-14T03:52:03.802Z,13.30
2018-02-14T03:53:24.802Z,12.90
2018-02-14T03:54:03.804Z,12.90
2018-02-14T03:55:03.836Z,13.30
2018-02-14T03:56:03.830Z,13.90
2018-02-14T03:57:03.782Z,12.90
2018-02-14T03:58:03.776Z,13.00
2018-02-14T03:59:24.819Z,13.50
2018-02-14T04:00:03.763Z,13.80
2018-02-14T04:01:03.859Z,13.30
2018-02-14T04:02:03.754Z,14.60
2018-02-14T04:03:03.892Z,14.00
2018-02-14T04:04:03.752Z,13.80
2018-02-14T04:05:25.759Z,13.10
2018-02-14T04:06:03.751Z,14.40
2018-02-14T04:07:03.733Z,13.80
2018-02-14T04:08:03.743Z,14.40
2018-02-14T04:09:03.720Z,13.70
2018-02-14T04:10:03.782Z,14.40
2018-02-14T04:11:24.714Z,14.20
2018-02-14T04:12:03.703Z,13.70
2018-02-14T04:13:03.712Z,14.00
2018-02-14T04:14:03.727Z,13.50
2018-02-14T04:15:03.704Z,13.30
2018-02-14T04:16:03.707Z,13.50
2018-02-14T04:17:24.692Z,14.00
2018-02-14T04:18:03.692Z,14.30
2018-02-14T04:19:03.679Z,13.50
2018-02-14T04:20:03.671Z,13.50
2018-02-14T04:21:03.701Z,14.50
2018-02-14T04:22:03.675Z,13.40
2018-02-14T04:23:24.664Z,13.80
2018-02-14T04:24:03.675Z,14.80
2018-02-14T04:25:03.673Z,12.80
2018-02-14T04:26:03.637Z,13.80
2018-02-14T04:27:03.671Z,13.20
2018-02-14T04:28:03.645Z,14.40
2018-02-14T04:29:24.651Z,12.90
2018-02-14T04:30:03.636Z,14.20
2018-02-14T04:31:03.635Z,14.00
2018-02-14T04:32:03.633Z,14.40
2018-02-14T04:33:03.641Z,14.00
2018-02-14T04:34:03.618Z,14.10
2018-02-14T04:35:24.620Z,14.00
2018-02-14T04:36:03.602Z,14.20
2018-02-14T04:37:03.592Z,14.00
2018-02-14T04:38:03.619Z,14.50
2018-02-14T04:39:03.589Z,14.00
2018-02-14T04:40:03.584Z,13.60
2018-02-14T04:41:24.596Z,14.10
2018-02-14T04:42:03.600Z,13.60
2018-02-14T04:43:03.581Z,13.70
2018-02-14T04:44:03.606Z,14.00
2018-02-14T04:45:03.563Z,13.70
2018-02-14T04:46:03.572Z,14.10
2018-02-14T04:47:24.567Z,14.20
2018-02-14T04:48:03.552Z,14.20
2018-02-14T04:49:03.568Z,13.40
2018-02-14T04:50:04.260Z,14.10
2018-02-14T04:51:03.651Z,14.40
2018-02-14T04:52:03.553Z,14.40
2018-02-14T04:53:24.542Z,14.30
2018-02-14T04:54:03.516Z,14.10
2018-02-14T04:55:03.512Z,14.90
2018-02-14T04:56:03.515Z,14.50
2018-02-14T04:57:03.520Z,15.40
2018-02-14T04:58:03.562Z,13.80
2018-02-14T04:59:24.526Z,14.00
2018-02-14T05:00:03.569Z,14.50
2018-02-14T05:01:03.495Z,14.90
2018-02-14T05:02:03.506Z,15.00
2018-02-14T05:03:03.494Z,14.20
2018-02-14T05:04:03.605Z,15.00
2018-02-14T05:05:24.507Z,14.30
2018-02-14T05:06:03.484Z,14.30
2018-02-14T05:07:03.492Z,14.00
2018-02-14T05:08:03.474Z,14.80
2018-02-14T05:09:03.537Z,14.70
2018-02-14T05:10:03.482Z,14.50
2018-02-14T05:11:24.470Z,13.90
2018-02-14T05:12:03.474Z,14.90
2018-02-14T05:13:03.457Z,14.30
2018-02-14T05:14:03.445Z,14.60
2018-02-14T05:15:03.442Z,15.80
2018-02-14T05:16:03.545Z,14.60
2018-02-14T05:17:24.470Z,14.80
2018-02-14T05:18:03.434Z,15.20
2018-02-14T05:19:03.442Z,14.70
2018-02-14T05:20:03.421Z,15.80
2018-02-14T05:21:03.403Z,15.20
2018-02-14T05:22:03.393Z,15.80
2018-02-14T05:23:24.417Z,15.60
2018-02-14T05:24:03.431Z,15.90
2018-02-14T05:25:03.473Z,15.30
2018-02-14T05:26:03.383Z,14.40
2018-02-14T05:27:03.376Z,14.90
2018-02-14T05:28:03.382Z,15.30
2018-02-14T05:29:24.410Z,14.90
2018-02-14T05:30:03.393Z,14.90
2018-02-14T05:31:03.400Z,14.90
2018-02-14T05:32:03.356Z,15.60
2018-02-14T05:33:03.351Z,15.50
2018-02-14T05:34:03.341Z,15.30
2018-02-14T05:35:24.429Z,15.40
2018-02-14T05:36:03.334Z,14.90
2018-02-14T05:37:03.332Z,14.70
2018-02-14T05:38:03.447Z,15.80
2018-02-14T05:39:03.441Z,14.70
2018-02-14T05:40:03.370Z,16.10
2018-02-14T05:41:24.319Z,15.10
2018-02-14T05:42:03.302Z,16.00
2018-02-14T05:43:03.299Z,15.10
2018-02-14T05:44:03.304Z,16.10
2018-02-14T05:45:03.346Z,14.90
2018-02-14T05:46:03.288Z,15.20
2018-02-14T05:47:25.253Z,16.30
2018-02-14T05:48:03.284Z,15.40
2018-02-14T05:49:03.268Z,15.50
2018-02-14T05:50:03.292Z,15.40
2018-02-14T05:51:04.258Z,15.20
2018-02-14T05:52:03.301Z,15.40
2018-02-14T05:53:24.271Z,14.90
2018-02-14T05:54:03.271Z,14.80
2018-02-14T05:55:03.281Z,14.40
2018-02-14T05:56:03.268Z,15.10
2018-02-14T05:57:03.249Z,14.50
2018-02-14T05:58:03.259Z,15.70
2018-02-14T05:59:24.244Z,14.60
2018-02-14T06:00:03.278Z,15.00
2018-02-14T06:01:03.299Z,15.00
2018-02-14T06:02:03.228Z,15.80
2018-02-14T06:03:03.292Z,15.90
2018-02-14T06:04:03.224Z,15.80
2018-02-14T06:05:24.333Z,15.90
2018-02-14T06:06:03.237Z,15.60
2018-02-14T06:07:03.260Z,15.40
2018-02-14T06:08:03.199Z,16.00
2018-02-14T06:09:03.184Z,15.30
2018-02-14T06:10:03.180Z,14.80
2018-02-14T06:11:24.186Z,14.70
2018-02-14T06:12:03.467Z,15.20
2018-02-14T06:13:03.182Z,16.60
2018-02-14T06:14:03.183Z,15.40
2018-02-14T06:15:03.380Z,15.10
2018-02-14T06:16:03.171Z,16.90
2018-02-14T06:17:24.160Z,16.00
2018-02-14T06:18:03.159Z,15.60
2018-02-14T06:19:03.162Z,16.10
2018-02-14T06:20:03.138Z,16.40
2018-02-14T06:21:03.144Z,16.10
2018-02-14T06:22:03.134Z,16.00
2018-02-14T06:23:24.132Z,16.30
2018-02-14T06:24:03.133Z,16.40
2018-02-14T06:25:03.114Z,16.00
2018-02-14T06:26:03.115Z,16.60
2018-02-14T06:27:03.139Z,17.30
2018-02-14T06:28:03.305Z,17.50
2018-02-14T06:29:24.113Z,18.10
2018-02-14T06:30:03.114Z,17.40
2018-02-14T06:31:03.108Z,16.80
2018-02-14T06:32:03.077Z,17.50
2018-02-14T06:33:03.273Z,16.80
2018-02-14T06:34:03.085Z,16.50
2018-02-14T06:35:24.076Z,16.80
2018-02-14T06:36:03.069Z,16.10
2018-02-14T06:37:03.074Z,17.40
2018-02-14T06:38:03.080Z,17.50
2018-02-14T06:39:03.088Z,18.10
2018-02-14T06:40:03.075Z,20.80
2018-02-14T06:41:24.082Z,24.20
2018-02-14T06:42:03.071Z,22.90
2018-02-14T06:43:03.069Z,22.00
2018-02-14T06:44:03.066Z,23.10
2018-02-14T06:45:03.029Z,22.20
2018-02-14T06:46:03.833Z,22.30
2018-02-14T06:47:24.044Z,21.00
2018-02-14T06:48:03.030Z,20.80
2018-02-14T06:49:03.029Z,20.70
2018-02-14T06:50:03.003Z,18.70
2018-02-14T06:51:03.028Z,18.70
2018-02-14T06:52:03.013Z,19.20
2018-02-14T06:53:24.026Z,17.70
2018-02-14T06:54:03.003Z,17.40
2018-02-14T06:55:02.995Z,17.30
2018-02-14T06:56:03.059Z,17.80
2018-02-14T06:57:02.974Z,17.20
2018-02-14T06:58:02.990Z,18.40
2018-02-14T06:59:23.967Z,17.50
2018-02-14T07:00:02.960Z,17.40
2018-02-14T07:01:02.960Z,17.50
2018-02-14T07:02:03.191Z,15.90
2018-02-14T07:03:02.939Z,17.10
2018-02-14T07:04:03.002Z,16.80
2018-02-14T07:05:23.942Z,17.40
2018-02-14T07:06:03.053Z,16.90
2018-02-14T07:07:02.932Z,17.30
2018-02-14T07:08:02.950Z,17.30
2018-02-14T07:09:02.961Z,16.80
2018-02-14T07:10:03.060Z,16.10
2018-02-14T07:11:24.009Z,16.90
2018-02-14T07:12:02.944Z,16.30
2018-02-14T07:13:02.955Z,16.80
2018-02-14T07:14:02.900Z,17.10
2018-02-14T07:15:03.049Z,17.90
2018-02-14T07:16:02.912Z,17.30
2018-02-14T07:17:23.919Z,16.50
2018-02-14T07:18:02.913Z,17.20
2018-02-14T07:19:02.910Z,16.60
2018-02-14T07:20:02.882Z,17.00
2018-02-14T07:21:02.884Z,17.90
2018-02-14T07:22:02.872Z,17.00
2018-02-14T07:23:23.871Z,17.70
2018-02-14T07:24:02.862Z,17.50
2018-02-14T07:25:02.881Z,16.30
2018-02-14T07:26:02.837Z,16.10
2018-02-14T07:27:02.925Z,17.10
2018-02-14T07:28:02.909Z,17.10
2018-02-14T07:29:23.823Z,16.20
2018-02-14T07:30:02.810Z,16.40
2018-02-14T07:31:02.841Z,17.30
2018-02-14T07:32:02.857Z,16.40
2018-02-14T07:33:02.834Z,16.40
2018-02-14T07:34:02.807Z,16.40
2018-02-14T07:35:23.852Z,16.40
2018-02-14T07:36:02.915Z,17.50
2018-02-14T07:37:02.789Z,16.40
2018-02-14T07:38:02.795Z,16.70
2018-02-14T07:39:02.772Z,16.30
2018-02-14T07:40:02.790Z,15.70
2018-02-14T07:41:24.122Z,16.20
2018-02-14T07:42:02.790Z,16.20
2018-02-14T07:43:02.830Z,16.60
2018-02-14T07:44:02.753Z,15.40
2018-02-14T07:45:02.835Z,15.80
2018-02-14T07:46:02.788Z,17.10
2018-02-14T07:47:23.752Z,15.90
2018-02-14T07:48:02.751Z,16.00
2018-02-14T07:49:02.816Z,16.20
2018-02-14T07:50:02.741Z,16.00
2018-02-14T07:51:02.738Z,15.50
2018-02-14T07:52:02.733Z,15.00
2018-02-14T07:53:23.888Z,14.90
2018-02-14T07:54:02.756Z,15.00
2018-02-14T07:55:02.721Z,15.50
2018-02-14T07:56:02.718Z,14.90
2018-02-14T07:57:02.713Z,14.30
2018-02-14T07:58:02.708Z,14.40
2018-02-14T07:59:23.711Z,14.00
2018-02-14T08:00:02.703Z,14.10
2018-02-14T08:01:02.736Z,14.70
2018-02-14T08:02:02.757Z,14.40
2018-02-14T08:03:02.697Z,14.30
2018-02-14T08:04:02.701Z,13.90
2018-02-14T08:05:23.707Z,14.00
2018-02-14T08:06:02.762Z,13.70
2018-02-14T08:07:02.788Z,13.60
2018-02-14T08:08:02.797Z,13.30
2018-02-14T08:09:02.684Z,14.10
2018-02-14T08:10:02.746Z,13.30
2018-02-14T08:11:23.695Z,13.50
2018-02-14T08:12:02.680Z,13.30
2018-02-14T08:13:02.696Z,13.00
2018-02-14T08:14:02.694Z,13.20
2018-02-14T08:15:02.672Z,13.00
2018-02-14T08:16:02.702Z,13.90
2018-02-14T08:17:23.748Z,13.50
2018-02-14T08:18:02.797Z,13.80
2018-02-14T08:19:02.843Z,13.40
2018-02-14T08:20:02.694Z,13.90
2018-02-14T08:21:02.753Z,13.40
2018-02-14T08:22:02.699Z,12.80
2018-02-14T08:23:23.711Z,13.80
2018-02-14T08:24:02.949Z,13.20
2018-02-14T08:25:02.696Z,13.40
2018-02-14T08:26:02.702Z,13.30
2018-02-14T08:27:02.794Z,12.30
2018-02-14T08:28:02.682Z,12.50
2018-02-14T08:29:23.748Z,12.70
2018-02-14T08:30:02.715Z,12.90
2018-02-14T08:31:02.696Z,12.70
2018-02-14T08:32:02.754Z,12.20
2018-02-14T08:33:02.697Z,12.90
2018-02-14T08:34:02.785Z,13.30
2018-02-14T08:35:23.690Z,12.80
2018-02-14T08:36:02.859Z,12.60
2018-02-14T08:37:02.734Z,12.70
2018-02-14T08:38:02.711Z,12.00
2018-02-14T08:39:02.755Z,12.50
2018-02-14T08:40:02.710Z,12.30
2018-02-14T08:41:23.718Z,12.40
2018-02-14T08:42:02.717Z,12.50
2018-02-14T08:43:02.701Z,12.40
2018-02-14T08:44:02.747Z,12.90
2018-02-14T08:45:03.427Z,12.70
2018-02-14T08:46:02.831Z,13.00
2018-02-14T08:47:23.765Z,12.90
2018-02-14T08:48:02.751Z,11.60
2018-02-14T08:49:03.775Z,12.30
2018-02-14T08:50:03.075Z,11.80
2018-02-14T08:51:03.158Z,13.20
2018-02-14T08:52:03.634Z,13.30
2018-02-14T08:53:23.792Z,12.80
2018-02-14T08:54:02.752Z,12.80
2018-02-14T08:55:02.882Z,13.10
2018-02-14T08:56:02.752Z,13.30
2018-02-14T08:57:02.756Z,12.80
2018-02-14T08:58:02.755Z,13.60
2018-02-14T08:59:23.790Z,13.20
2018-02-14T09:00:02.768Z,12.40
2018-02-14T09:01:02.764Z,13.10
2018-02-14T09:02:02.882Z,12.50
2018-02-14T09:03:02.802Z,12.80
2018-02-14T09:04:03.015Z,12.40
2018-02-14T09:05:23.808Z,13.10
2018-02-14T09:06:02.806Z,13.00
2018-02-14T09:07:03.005Z,12.90
2018-02-14T09:08:02.837Z,12.50
2018-02-14T09:09:02.886Z,13.00
2018-02-14T09:10:02.804Z,13.40
2018-02-14T09:11:23.818Z,12.20
2018-02-14T09:12:02.826Z,12.20
2018-02-14T09:13:02.837Z,12.80
2018-02-14T09:14:02.892Z,12.40
2018-02-14T09:15:02.824Z,12.90
2018-02-14T09:16:02.904Z,11.70
2018-02-14T09:17:23.868Z,11.60
2018-02-14T09:18:02.879Z,12.60
2018-02-14T09:19:02.848Z,11.20
2018-02-14T09:20:02.843Z,12.30
2018-02-14T09:21:02.867Z,11.80
2018-02-14T09:22:02.856Z,11.10
2018-02-14T09:23:23.973Z,11.80
2018-02-14T09:24:02.893Z,12.10
2018-02-14T09:25:02.876Z,11.90
2018-02-14T09:26:02.881Z,12.90
2018-02-14T09:27:03.049Z,12.10
2018-02-14T09:28:02.895Z,11.60
2018-02-14T09:29:23.935Z,11.50
2018-02-14T09:30:02.954Z,11.70
2018-02-14T09:31:03.042Z,12.20
2018-02-14T09:32:02.890Z,12.00
2018-02-14T09:33:02.920Z,11.90
2018-02-14T09:34:02.926Z,11.40
2018-02-14T09:35:23.967Z,11.50
2018-02-14T09:36:03.011Z,12.20
2018-02-14T09:37:02.930Z,11.80
2018-02-14T09:38:02.916Z,11.50
2018-02-14T09:39:02.982Z,10.40
2018-02-14T09:40:03.172Z,11.60
2018-02-14T09:41:23.965Z,11.40
2018-02-14T09:42:02.958Z,11.50
2018-02-14T09:43:03.024Z,11.10
2018-02-14T09:44:02.969Z,10.30
2018-02-14T09:45:02.996Z,10.80
2018-02-14T09:46:02.987Z,10.60
2018-02-14T09:47:23.983Z,11.40
2018-02-14T09:48:03.000Z,11.30
2018-02-14T09:49:02.997Z,10.30
2018-02-14T09:50:03.007Z,11.70
2018-02-14T09:51:03.008Z,11.40
2018-02-14T09:52:03.006Z,11.10
2018-02-14T09:53:24.027Z,10.80
2018-02-14T09:54:03.024Z,11.50
2018-02-14T09:55:03.018Z,10.70
2018-02-14T09:56:03.041Z,11.40
2018-02-14T09:57:03.027Z,11.30
2018-02-14T09:58:03.043Z,10.70
2018-02-14T09:59:24.939Z,10.70
2018-02-14T10:00:03.127Z,11.00
2018-02-14T10:01:03.056Z,10.90
2018-02-14T10:02:03.108Z,11.40
2018-02-14T10:03:03.106Z,10.90
2018-02-14T10:04:03.143Z,12.00
2018-02-14T10:05:24.086Z,11.00
2018-02-14T10:06:03.080Z,10.90
2018-02-14T10:07:03.096Z,11.70
2018-02-14T10:08:03.096Z,11.80
2018-02-14T10:09:03.096Z,11.60
2018-02-14T10:10:03.104Z,11.30
2018-02-14T10:11:24.145Z,11.60
2018-02-14T10:12:03.122Z,11.00
2018-02-14T10:13:03.143Z,10.90
2018-02-14T10:14:03.775Z,10.90
2018-02-14T10:15:03.153Z,11.30
2018-02-14T10:16:03.152Z,11.70
2018-02-14T10:17:24.137Z,11.60
2018-02-14T10:18:03.204Z,12.30
2018-02-14T10:19:03.152Z,11.10
2018-02-14T10:20:03.158Z,11.40
2018-02-14T10:21:03.294Z,11.90
2018-02-14T10:22:03.232Z,11.40
2018-02-14T10:23:24.168Z,10.60
2018-02-14T10:24:03.349Z,11.50
2018-02-14T10:25:03.193Z,11.50
2018-02-14T10:26:03.181Z,10.70
2018-02-14T10:27:03.364Z,12.10
2018-02-14T10:28:03.191Z,11.30
2018-02-14T10:29:24.228Z,11.50
2018-02-14T10:30:03.202Z,11.10
2018-02-14T10:31:03.409Z,11.50
2018-02-14T10:32:03.213Z,11.30
2018-02-14T10:33:03.194Z,11.70
2018-02-14T10:34:03.249Z,11.60
2018-02-14T10:35:24.843Z,11.80
2018-02-14T10:36:03.259Z,11.40
2018-02-14T10:37:04.308Z,11.30
2018-02-14T10:38:03.232Z,11.60
2018-02-14T10:39:03.254Z,11.60
2018-02-14T10:40:03.244Z,11.50
2018-02-14T10:41:24.231Z,11.30
2018-02-14T10:42:03.245Z,11.10
2018-02-14T10:43:03.884Z,11.10
2018-02-14T10:44:03.303Z,10.80
2018-02-14T10:45:03.263Z,11.30
2018-02-14T10:46:03.263Z,10.70
2018-02-14T10:47:24.314Z,10.50
2018-02-14T10:48:03.260Z,10.40
2018-02-14T10:49:03.326Z,10.80
2018-02-14T10:50:03.328Z,10.70
2018-02-14T10:51:03.304Z,10.90
2018-02-14T10:52:03.312Z,10.30
2018-02-14T10:53:24.288Z,10.90
2018-02-14T10:54:03.896Z,10.90
2018-02-14T10:55:03.380Z,11.70
2018-02-14T10:56:03.391Z,10.40
2018-02-14T10:57:03.293Z,9.40
2018-02-14T10:58:03.366Z,10.60
2018-02-14T10:59:24.411Z,10.20
2018-02-14T11:00:03.331Z,9.90
2018-02-14T11:01:03.367Z,10.90
2018-02-14T11:02:03.370Z,10.30
2018-02-14T11:03:04.337Z,10.00
2018-02-14T11:04:03.370Z,9.90
2018-02-14T11:05:25.843Z,9.70
2018-02-14T11:06:03.453Z,9.10
2018-02-14T11:07:03.384Z,11.20
2018-02-14T11:08:03.526Z,10.60
2018-02-14T11:09:03.532Z,9.50
2018-02-14T11:10:03.514Z,9.60
2018-02-14T11:11:24.401Z,10.90
2018-02-14T11:12:03.495Z,10.60
2018-02-14T11:13:03.451Z,10.10
2018-02-14T11:14:03.414Z,11.10
2018-02-14T11:15:03.440Z,11.60
2018-02-14T11:16:03.445Z,10.70
2018-02-14T11:17:24.440Z,9.70
2018-02-14T11:18:03.450Z,9.90
2018-02-14T11:19:03.444Z,9.50
2018-02-14T11:20:03.449Z,9.40
2018-02-14T11:21:03.465Z,10.10
2018-02-14T11:22:03.463Z,9.80
2018-02-14T11:23:24.481Z,10.60
2018-02-14T11:24:03.483Z,9.70
2018-02-14T11:25:03.498Z,9.80
2018-02-14T11:26:04.371Z,9.60
2018-02-14T11:27:03.570Z,10.10
2018-02-14T11:28:03.492Z,10.00
2018-02-14T11:29:24.653Z,10.10
2018-02-14T11:30:03.557Z,10.00
2018-02-14T11:31:03.632Z,9.20
2018-02-14T11:32:03.536Z,10.40
2018-02-14T11:33:03.559Z,9.30
2018-02-14T11:34:03.675Z,9.00
2018-02-14T11:35:24.564Z,9.50
2018-02-14T11:36:04.419Z,10.30
2018-02-14T11:37:03.568Z,9.80
2018-02-14T11:38:03.572Z,9.90
2018-02-14T11:39:03.622Z,9.50
2018-02-14T11:40:03.591Z,8.90
2018-02-14T11:41:24.609Z,8.70
2018-02-14T11:42:03.604Z,8.50
2018-02-14T11:43:03.639Z,7.80
2018-02-14T11:44:03.649Z,8.70
2018-02-14T11:45:03.628Z,8.10
2018-02-14T11:46:03.655Z,8.00
2018-02-14T11:47:24.665Z,8.30
2018-02-14T11:48:03.661Z,7.20
2018-02-14T11:49:03.694Z,8.40
2018-02-14T11:50:03.670Z,8.20
2018-02-14T11:51:03.690Z,8.20
2018-02-14T11:52:03.688Z,8.10
2018-02-14T11:53:24.713Z,8.20
2018-02-14T11:54:03.718Z,8.10
2018-02-14T11:55:03.735Z,7.40
2018-02-14T11:56:03.738Z,7.80
2018-02-14T11:57:03.762Z,7.90
2018-02-14T11:58:03.740Z,7.80
2018-02-14T11:59:24.812Z,7.60
2018-02-14T12:00:03.770Z,7.90
2018-02-14T12:01:03.807Z,8.00
2018-02-14T12:02:03.780Z,8.00
2018-02-14T12:03:03.805Z,7.90
2018-02-14T12:04:03.805Z,8.00
2018-02-14T12:05:24.813Z,8.10
2018-02-14T12:06:03.833Z,7.80
2018-02-14T12:07:03.886Z,8.00
2018-02-14T12:08:03.803Z,8.00
2018-02-14T12:09:03.915Z,8.70
2018-02-14T12:10:03.839Z,7.10
2018-02-14T12:11:24.838Z,8.20
2018-02-14T12:12:03.848Z,8.50
2018-02-14T12:13:03.840Z,7.60
2018-02-14T12:14:04.389Z,7.60
2018-02-14T12:15:03.874Z,7.70
2018-02-14T12:16:03.862Z,7.80
2018-02-14T12:17:24.868Z,8.70
2018-02-14T12:18:03.883Z,7.60
2018-02-14T12:19:03.883Z,7.30
2018-02-14T12:20:03.889Z,8.00
2018-02-14T12:21:03.889Z,8.70
2018-02-14T12:22:03.898Z,8.50
2018-02-14T12:23:24.947Z,8.00
2018-02-14T12:24:03.895Z,7.60
2018-02-14T12:25:03.987Z,8.60
2018-02-14T12:26:03.917Z,10.20
2018-02-14T12:27:04.069Z,8.80
2018-02-14T12:28:04.037Z,10.50
2018-02-14T12:29:24.952Z,9.60
2018-02-14T12:30:03.953Z,9.60
2018-02-14T12:31:03.951Z,8.40
2018-02-14T12:32:03.918Z,8.70
2018-02-14T12:33:03.928Z,8.20
2018-02-14T12:34:03.956Z,7.30
2018-02-14T12:35:24.972Z,7.60
2018-02-14T12:36:03.960Z,7.90
2018-02-14T12:37:03.990Z,7.40
2018-02-14T12:38:03.980Z,7.50
2018-02-14T12:39:04.885Z,7.80
2018-02-14T12:40:04.840Z,7.50
2018-02-14T12:41:25.166Z,7.30
2018-02-14T12:42:03.959Z,7.60
2018-02-14T12:43:04.078Z,7.40
2018-02-14T12:44:04.001Z,7.50
2018-02-14T12:45:04.134Z,7.40
2018-02-14T12:46:03.967Z,7.70
2018-02-14T12:47:24.977Z,7.20
2018-02-14T12:48:03.993Z,7.80
2018-02-14T12:49:04.001Z,7.20
2018-02-14T12:50:04.065Z,8.10
2018-02-14T12:51:03.986Z,7.50
2018-02-14T12:52:03.996Z,8.10
2018-02-14T12:53:26.125Z,8.10
2018-02-14T12:54:04.007Z,7.60
2018-02-14T12:55:04.007Z,7.20